Aérodrome :
LOGIN :

S'inscrire | Disclaimer

   EN    FR    IT 

 










Légende :    VFR   VFR Marginal   IFR   IFR Intensif   IFR Très Intensif
Visi : 
Plafond : 
>= 8 km
>= 3000ft
5 à 8 km
1000 à 3000 ft
1500m à 5 km
500 à 1000 ft
800 à 1500m
200 à 500 ft
< 800m
< 200 ft
Symboles :   Orages  Brouillard  Fortes neiges  Fortes précipitations  Vent > 20 kt
SIGMETs :   Divers  Orages  Givrage  Turbulence  Onde Orograph.  Cendres Volcan.






- Altitude de l'aérodrome : 427 ft
- Code IATA : CIA


LIRA - Roma Ciampino

DERNIER METAR :
  • 200750Z 03008KT CAVOK 09/M01 Q1031

METARs EXPIRÉS :
  • 200720Z 03006KT 350V070 CAVOK 09/M01 Q1031
  • 200650Z 01006KT 330V050 CAVOK 09/M01 Q1030
  • 200620Z 03007KT 010V080 CAVOK 09/M01 Q1030
  • 200550Z 03008KT CAVOK 09/M02 Q1030
  • 200520Z 06009KT 020V080 CAVOK 10/M02 Q1029

TAF TAF LIRA
Valide du 20 à 06h jusqu'au 21 à 06h UTC


200500Z 2006/2106 03010KT 9999 FEW030



MET'MAP, la Météo Aéronautique d'un coup d'oeil ! - Copyright ORBIFLY Décembre 2007 - Disclaimer

ORBIFLY MET'MAP TEAM :

Programmation & Développement : Alexandra Zaïnal
Sur une idée originale de : Baudouin d'Aumeries
Assistance à la programmation : Marc-Olivier Méhu
Soutien technique & logistique : Manuel Goepfert

Contact : metmap@orbifly.com




SOURCES & CREDITS :

   NOAA